Alixel 2 — FGAP — position and weather

sailwx.info

Track history (hours):
 
Tides and Currents Weather Stations Pressure Air Temp Water Temp Dewpoint Dewpoint Depression Visibility Wind Speed Wind Dir Waves Ship Positions

Alixel 2

Last reported at 2018-Feb-20 03:58 UTC. Time now 2018-Feb-21 21:14 UTC.
Position N 47°47' W 004°00'.

Length 14 m.

Type: Fishing. MMSI: 227962000.

Date/timePositionNaut miles runAvg speedWind from/ knotsBaromVisibWave heightAir tempDewpointWater temp
2018-Feb-20 03:58N 47°47' W 004°00'1 0.2
2018-Feb-19 23:58N 47°46' W 004°01'  
2018-Feb-16 01:58N 47°49' W 003°56'10 7.2
2018-Feb-16 00:35N 47°41' W 003°48'3 6.7
2018-Feb-16 00:07N 47°38' W 003°50'0 0.2
2018-Feb-15 23:41N 47°38' W 003°50'0 1.0
2018-Feb-15 23:26N 47°38' W 003°50'1 2.9
2018-Feb-15 23:00N 47°39' W 003°48'2 2.8
2018-Feb-15 22:23N 47°40' W 003°46'1 2.4
2018-Feb-15 22:00N 47°40' W 003°48'2 3.4
2018-Feb-15 21:29N 47°38' W 003°49'1 0.7
2018-Feb-15 20:16N 47°39' W 003°49'1 3.6
2018-Feb-15 19:57N 47°39' W 003°48'2 3.7
2018-Feb-15 19:28N 47°38' W 003°45'1 2.2
2018-Feb-15 19:00N 47°38' W 003°44'1 3.0
2018-Feb-15 18:30N 47°37' W 003°42'2 2.7
2018-Feb-15 17:56N 47°36' W 003°41'1 3.0
2018-Feb-15 17:30N 47°35' W 003°40'1 2.8
2018-Feb-15 16:59N 47°33' W 003°39'1 1.9
2018-Feb-15 16:30N 47°32' W 003°39'2 3.2
2018-Feb-15 16:00N 47°31' W 003°40'2 3.4
2018-Feb-15 15:30N 47°30' W 003°41'2 3.5
2018-Feb-15 14:59N 47°28' W 003°42'1 2.7
2018-Feb-15 14:27N 47°27' W 003°41'3 4.7
2018-Feb-15 13:54N 47°25' W 003°38'1 2.4
2018-Feb-15 13:30N 47°25' W 003°39'2 3.6
2018-Feb-15 12:57N 47°25' W 003°42'1 1.6
2018-Feb-15 12:30N 47°25' W 003°42'2 3.0
2018-Feb-15 12:00N 47°25' W 003°39'1 1.3
2018-Feb-15 11:30N 47°25' W 003°39'2 3.3
2018-Feb-15 10:56N 47°26' W 003°41'2 3.4
2018-Feb-15 10:29N 47°27' W 003°43'1 0.9
2018-Feb-15 09:03N 47°28' W 003°44'0 3.5
2018-Feb-15 08:55N 47°28' W 003°44'2 0.1
2018-Feb-14 15:40N 47°26' W 003°44'1 3.2
2018-Feb-14 15:29N 47°27' W 003°43'2 3.1
2018-Feb-14 14:51N 47°29' W 003°44'23 0.6
2018-Feb-13 01:58N 47°50' W 003°56'23 1.6
2018-Feb-12 10:59N 47°28' W 003°46'0 0.0
2018-Feb-12 09:41N 47°28' W 003°46'1 3.0
2018-Feb-12 09:24N 47°28' W 003°47'3 2.8
2018-Feb-12 08:17N 47°31' W 003°48'1 3.4
2018-Feb-12 08:00N 47°32' W 003°47'2 3.6
2018-Feb-12 07:29N 47°33' W 003°44'1 3.0
2018-Feb-12 07:00N 47°34' W 003°43'1 2.9
2018-Feb-12 06:30N 47°34' W 003°46'18 6.8
2018-Feb-12 03:48N 47°51' W 003°56'  
Track history (hours):
 
Tides and Currents Weather Stations Pressure Air Temp Water Temp Dewpoint Dewpoint Depression Visibility Wind Speed Wind Dir Waves Ship Positions

Alixel 2

Last reported at 2018-Feb-20 03:58 UTC. Time now 2018-Feb-21 21:14 UTC.
Position N 47°47' W 004°00'.

Length 14 m.

Type: Fishing. MMSI: 227962000.

Date/timePositionNaut miles runAvg speedWind from/ knotsBaromVisibWave heightAir tempDewpointWater temp
2018-Feb-20 03:58N 47°47' W 004°00'1 0.2
2018-Feb-19 23:58N 47°46' W 004°01'  
2018-Feb-16 01:58N 47°49' W 003°56'10 7.2
2018-Feb-16 00:35N 47°41' W 003°48'3 6.7
2018-Feb-16 00:07N 47°38' W 003°50'0 0.2
2018-Feb-15 23:41N 47°38' W 003°50'0 1.0
2018-Feb-15 23:26N 47°38' W 003°50'1 2.9
2018-Feb-15 23:00N 47°39' W 003°48'2 2.8
2018-Feb-15 22:23N 47°40' W 003°46'1 2.4
2018-Feb-15 22:00N 47°40' W 003°48'2 3.4
2018-Feb-15 21:29N 47°38' W 003°49'1 0.7
2018-Feb-15 20:16N 47°39' W 003°49'1 3.6
2018-Feb-15 19:57N 47°39' W 003°48'2 3.7
2018-Feb-15 19:28N 47°38' W 003°45'1 2.2
2018-Feb-15 19:00N 47°38' W 003°44'1 3.0
2018-Feb-15 18:30N 47°37' W 003°42'2 2.7
2018-Feb-15 17:56N 47°36' W 003°41'1 3.0
2018-Feb-15 17:30N 47°35' W 003°40'1 2.8
2018-Feb-15 16:59N 47°33' W 003°39'1 1.9
2018-Feb-15 16:30N 47°32' W 003°39'2 3.2
2018-Feb-15 16:00N 47°31' W 003°40'2 3.4
2018-Feb-15 15:30N 47°30' W 003°41'2 3.5
2018-Feb-15 14:59N 47°28' W 003°42'1 2.7
2018-Feb-15 14:27N 47°27' W 003°41'3 4.7
2018-Feb-15 13:54N 47°25' W 003°38'1 2.4
2018-Feb-15 13:30N 47°25' W 003°39'2 3.6
2018-Feb-15 12:57N 47°25' W 003°42'1 1.6
2018-Feb-15 12:30N 47°25' W 003°42'2 3.0
2018-Feb-15 12:00N 47°25' W 003°39'1 1.3
2018-Feb-15 11:30N 47°25' W 003°39'2 3.3
2018-Feb-15 10:56N 47°26' W 003°41'2 3.4
2018-Feb-15 10:29N 47°27' W 003°43'1 0.9
2018-Feb-15 09:03N 47°28' W 003°44'0 3.5
2018-Feb-15 08:55N 47°28' W 003°44'2 0.1
2018-Feb-14 15:40N 47°26' W 003°44'1 3.2
2018-Feb-14 15:29N 47°27' W 003°43'2 3.1
2018-Feb-14 14:51N 47°29' W 003°44'23 0.6
2018-Feb-13 01:58N 47°50' W 003°56'23 1.6
2018-Feb-12 10:59N 47°28' W 003°46'0 0.0
2018-Feb-12 09:41N 47°28' W 003°46'1 3.0
2018-Feb-12 09:24N 47°28' W 003°47'3 2.8
2018-Feb-12 08:17N 47°31' W 003°48'1 3.4
2018-Feb-12 08:00N 47°32' W 003°47'2 3.6
2018-Feb-12 07:29N 47°33' W 003°44'1 3.0
2018-Feb-12 07:00N 47°34' W 003°43'1 2.9
2018-Feb-12 06:30N 47°34' W 003°46'18 6.8
2018-Feb-12 03:48N 47°51' W 003°56'  

Dump ship's entire track history